Language: 


Des rapports , des résumés tant et plus, au choix de chacun....


Données Historiques de Météogheer
Journalier Rapport pour Février 7, 2018 Unitée:  Les deux    Impériale   Métrique
Suivant Jour »
Journalier Hebdomadaire Mensuel Annuel Sur mesure
  Max: Min: Moyenne:
Température: 35.8 °F /  2.1 °C 26.4 °F /  -3.1 °C 31.1 °F /  -0.5 °C
Point de rosée: 24.8 °F /  -4.0 °C 15.8 °F /  -9.0 °C 20.8 °F /  -6.2 °C
Humidité: 82% 45% 68%
Vent: 9.2mph /  14.8km/h - 5.2mph /  8.4km/h
Rafales: 11.2mph /  18.0km/h - -
Vent- - NE
Pression: 30.1 in /  1018.8 hPa 29.9 in /  1014.1 hPa -
Pluie: 0 in /  0.0 mm    
Historical Graphs
 
 
Données tabulaires pour Février 7, 2018
Heure Température Point de rosée Pression Vent Vent Rafales Humidité Pluie Taux (Horaire) Conditions
00:02 30.7 °F /  -0.7 °C 24.8 °F /  -4.0 °C 29.9in /  1014.1hPa NNE 5.4mph /  8.7km/h 5.4mph /  8.7km/h 81% 0in /  0.0mm
00:07 30.6 °F /  -0.8 °C 23 °F /  -5.0 °C 29.9in /  1014.1hPa NNE 5.4mph /  8.7km/h 5.4mph /  8.7km/h 81% 0in /  0.0mm
00:13 30.6 °F /  -0.8 °C 23 °F /  -5.0 °C 29.9in /  1014.1hPa NNE 5.4mph /  8.7km/h 5.4mph /  8.7km/h 81% 0in /  0.0mm
00:18 30.4 °F /  -0.9 °C 23 °F /  -5.0 °C 29.9in /  1014.1hPa ENE 6.5mph /  10.5km/h 6.5mph /  10.5km/h 80% 0in /  0.0mm
00:23 30.4 °F /  -0.9 °C 23 °F /  -5.0 °C 29.9in /  1014.1hPa NNE 7.4mph /  11.9km/h 7.4mph /  11.9km/h 80% 0in /  0.0mm
00:28 30.4 °F /  -0.9 °C 23 °F /  -5.0 °C 29.9in /  1014.1hPa NNE 7.4mph /  11.9km/h 7.4mph /  11.9km/h 80% 0in /  0.0mm
00:33 30.4 °F /  -0.9 °C 23 °F /  -5.0 °C 29.9in /  1014.1hPa NNE 8.1mph /  13.0km/h 8.1mph /  13.0km/h 81% 0in /  0.0mm
00:38 30.4 °F /  -0.9 °C 23 °F /  -5.0 °C 29.9in /  1014.1hPa NNE 8.1mph /  13.0km/h 8.1mph /  13.0km/h 81% 0in /  0.0mm
00:42 30.4 °F /  -0.9 °C 23 °F /  -5.0 °C 29.9in /  1014.1hPa NE 7.8mph /  12.6km/h 8.1mph /  13.0km/h 81% 0in /  0.0mm
00:48 30.4 °F /  -0.9 °C 23 °F /  -5.0 °C 29.9in /  1014.1hPa NE 7.8mph /  12.6km/h 8.1mph /  13.0km/h 81% 0in /  0.0mm
00:53 30.4 °F /  -0.9 °C 23 °F /  -5.0 °C 29.9in /  1014.1hPa NE 7.8mph /  12.6km/h 7.8mph /  12.6km/h 81% 0in /  0.0mm
00:58 30.4 °F /  -0.9 °C 23 °F /  -5.0 °C 29.9in /  1014.1hPa NE 7.8mph /  12.6km/h 7.8mph /  12.6km/h 81% 0in /  0.0mm
01:03 30.4 °F /  -0.9 °C 23 °F /  -5.0 °C 29.9in /  1014.1hPa NE 7.8mph /  12.6km/h 7.8mph /  12.6km/h 81% 0in /  0.0mm
01:08 30.4 °F /  -0.9 °C 23 °F /  -5.0 °C 29.9in /  1014.1hPa NE 7.8mph /  12.6km/h 7.8mph /  12.6km/h 81% 0in /  0.0mm
01:13 30.2 °F /  -1.0 °C 23 °F /  -5.0 °C 29.9in /  1014.1hPa North 7.8mph /  12.6km/h 7.8mph /  12.6km/h 81% 0in /  0.0mm
01:18 30.2 °F /  -1.0 °C 23 °F /  -5.0 °C 29.9in /  1014.1hPa North 7.8mph /  12.6km/h 7.8mph /  12.6km/h 81% 0in /  0.0mm
01:23 30.2 °F /  -1.0 °C 24.8 °F /  -4.0 °C 29.9in /  1014.1hPa North 7.8mph /  12.6km/h 7.8mph /  12.6km/h 82% 0in /  0.0mm
01:28 30.2 °F /  -1.0 °C 24.8 °F /  -4.0 °C 29.9in /  1014.1hPa North 7.8mph /  12.6km/h 7.8mph /  12.6km/h 82% 0in /  0.0mm
01:33 30.2 °F /  -1.0 °C 24.8 °F /  -4.0 °C 29.9in /  1014.1hPa North 7.8mph /  12.6km/h 7.8mph /  12.6km/h 82% 0in /  0.0mm
01:38 30.2 °F /  -1.0 °C 24.8 °F /  -4.0 °C 29.9in /  1014.1hPa North 7.8mph /  12.6km/h 7.8mph /  12.6km/h 82% 0in /  0.0mm
01:43 30.2 °F /  -1.0 °C 24.8 °F /  -4.0 °C 29.9in /  1014.1hPa North 7.8mph /  12.6km/h 7.8mph /  12.6km/h 82% 0in /  0.0mm
01:49 30.2 °F /  -1.0 °C 24.8 °F /  -4.0 °C 29.9in /  1014.1hPa North 7.8mph /  12.6km/h 7.8mph /  12.6km/h 82% 0in /  0.0mm
01:54 30.2 °F /  -1.0 °C 24.8 °F /  -4.0 °C 29.9in /  1014.1hPa NNE 8.7mph /  14.0km/h 8.7mph /  14.0km/h 82% 0in /  0.0mm
01:59 30.2 °F /  -1.0 °C 24.8 °F /  -4.0 °C 29.9in /  1014.1hPa NNE 8.7mph /  14.0km/h 8.7mph /  14.0km/h 82% 0in /  0.0mm
02:04 30.2 °F /  -1.0 °C 23 °F /  -5.0 °C 29.9in /  1014.1hPa NNE 7.4mph /  11.9km/h 8.7mph /  14.0km/h 80% 0in /  0.0mm
02:09 30.2 °F /  -1.0 °C 23 °F /  -5.0 °C 29.9in /  1014.1hPa NNE 7.8mph /  12.6km/h 8.7mph /  14.0km/h 80% 0in /  0.0mm
02:14 30.2 °F /  -1.0 °C 23 °F /  -5.0 °C 29.9in /  1014.1hPa NNE 7.8mph /  12.6km/h 7.8mph /  12.6km/h 79% 0in /  0.0mm
02:19 30.2 °F /  -1.0 °C 23 °F /  -5.0 °C 29.9in /  1014.1hPa NNE 7.8mph /  12.6km/h 7.8mph /  12.6km/h 78% 0in /  0.0mm
02:24 30.2 °F /  -1.0 °C 23 °F /  -5.0 °C 29.9in /  1014.1hPa NNE 7.8mph /  12.6km/h 7.8mph /  12.6km/h 78% 0in /  0.0mm
02:29 30.2 °F /  -1.0 °C 23 °F /  -5.0 °C 29.9in /  1014.1hPa NE 8.1mph /  13.0km/h 8.1mph /  13.0km/h 78% 0in /  0.0mm
02:34 30.2 °F /  -1.0 °C 23 °F /  -5.0 °C 29.9in /  1014.1hPa NE 8.1mph /  13.0km/h 8.1mph /  13.0km/h 78% 0in /  0.0mm
02:39 30.2 °F /  -1.0 °C 23 °F /  -5.0 °C 29.9in /  1014.1hPa NE 8.1mph /  13.0km/h 8.1mph /  13.0km/h 77% 0in /  0.0mm
02:44 30.2 °F /  -1.0 °C 23 °F /  -5.0 °C 29.9in /  1014.1hPa NE 8.1mph /  13.0km/h 8.1mph /  13.0km/h 77% 0in /  0.0mm
02:49 30.2 °F /  -1.0 °C 23 °F /  -5.0 °C 29.9in /  1014.1hPa NE 7.8mph /  12.6km/h 8.1mph /  13.0km/h 77% 0in /  0.0mm
02:54 30 °F /  -1.1 °C 23 °F /  -5.0 °C 29.9in /  1014.1hPa ENE 7.8mph /  12.6km/h 9.6mph /  15.4km/h 77% 0in /  0.0mm
02:59 30 °F /  -1.1 °C 23 °F /  -5.0 °C 29.9in /  1014.1hPa NNE 8.1mph /  13.0km/h 9.6mph /  15.4km/h 76% 0in /  0.0mm
03:04 30 °F /  -1.1 °C 23 °F /  -5.0 °C 29.9in /  1014.1hPa NNE 7.4mph /  11.9km/h 9.2mph /  14.8km/h 76% 0in /  0.0mm
03:09 30 °F /  -1.1 °C 23 °F /  -5.0 °C 29.9in /  1014.1hPa NE 8.1mph /  13.0km/h 8.7mph /  14.0km/h 75% 0in /  0.0mm
03:14 30 °F /  -1.1 °C 23 °F /  -5.0 °C 29.9in /  1014.1hPa NE 8.5mph /  13.7km/h 8.7mph /  14.0km/h 75% 0in /  0.0mm
03:19 30 °F /  -1.1 °C 21.2 °F /  -6.0 °C 29.9in /  1014.1hPa NNE 7.2mph /  11.6km/h 11.2mph /  18.0km/h 74% 0in /  0.0mm
03:24 29.8 °F /  -1.2 °C 21.2 °F /  -6.0 °C 29.9in /  1014.1hPa NE 5.8mph /  9.3km/h 11.2mph /  18.0km/h 74% 0in /  0.0mm
03:29 29.8 °F /  -1.2 °C 21.2 °F /  -6.0 °C 29.9in /  1014.1hPa NE 9.2mph /  14.8km/h 9.2mph /  14.8km/h 73% 0in /  0.0mm
03:34 29.8 °F /  -1.2 °C 21.2 °F /  -6.0 °C 29.9in /  1014.1hPa NE 2.9mph /  4.7km/h 9.2mph /  14.8km/h 72% 0in /  0.0mm
03:39 29.7 °F /  -1.3 °C 21.2 °F /  -6.0 °C 29.9in /  1014.1hPa NE 7.8mph /  12.6km/h 9.2mph /  14.8km/h 72% 0in /  0.0mm
03:44 29.7 °F /  -1.3 °C 21.2 °F /  -6.0 °C 29.9in /  1014.1hPa NNE 5.6mph /  9.0km/h 8.5mph /  13.7km/h 71% 0in /  0.0mm
03:49 29.5 °F /  -1.4 °C 21.2 °F /  -6.0 °C 29.9in /  1014.1hPa NNE 5.8mph /  9.3km/h 7.8mph /  12.6km/h 71% 0in /  0.0mm
03:55 29.5 °F /  -1.4 °C 21.2 °F /  -6.0 °C 29.9in /  1014.1hPa NE 5.8mph /  9.3km/h 7.6mph /  12.2km/h 72% 0in /  0.0mm
04:00 29.3 °F /  -1.5 °C 21.2 °F /  -6.0 °C 29.9in /  1014.1hPa NNE 5.6mph /  9.0km/h 7.8mph /  12.6km/h 72% 0in /  0.0mm
04:05 29.3 °F /  -1.5 °C 21.2 °F /  -6.0 °C 29.9in /  1014.1hPa NNE 6.5mph /  10.5km/h 7.8mph /  12.6km/h 72% 0in /  0.0mm
04:10 29.1 °F /  -1.6 °C 21.2 °F /  -6.0 °C 29.9in /  1014.1hPa NNE 5.6mph /  9.0km/h 7.8mph /  12.6km/h 73% 0in /  0.0mm
04:15 28.9 °F /  -1.7 °C 21.2 °F /  -6.0 °C 29.9in /  1014.1hPa NE 0.9mph /  1.4km/h 6.5mph /  10.5km/h 73% 0in /  0.0mm
04:20 28.6 °F /  -1.9 °C 21.2 °F /  -6.0 °C 29.9in /  1014.1hPa NE 4mph /  6.4km/h 6.5mph /  10.5km/h 74% 0in /  0.0mm
04:25 28.6 °F /  -1.9 °C 21.2 °F /  -6.0 °C 29.9in /  1014.1hPa North 2.9mph /  4.7km/h 6.5mph /  10.5km/h 75% 0in /  0.0mm
04:30 28.4 °F /  -2.0 °C 21.2 °F /  -6.0 °C 29.9in /  1014.1hPa North 4.3mph /  6.9km/h 4.9mph /  7.9km/h 76% 0in /  0.0mm
04:35 28.4 °F /  -2.0 °C 21.2 °F /  -6.0 °C 29.9in /  1014.1hPa NNE 4mph /  6.4km/h 7.4mph /  11.9km/h 77% 0in /  0.0mm
04:40 28.2 °F /  -2.1 °C 21.2 °F /  -6.0 °C 29.9in /  1014.1hPa NNE 4.3mph /  6.9km/h 7.4mph /  11.9km/h 77% 0in /  0.0mm
04:45 28.2 °F /  -2.1 °C 21.2 °F /  -6.0 °C 29.9in /  1014.1hPa NE 4mph /  6.4km/h 6mph /  9.7km/h 78% 0in /  0.0mm
04:50 28.2 °F /  -2.1 °C 21.2 °F /  -6.0 °C 29.9in /  1014.1hPa NNE 5.6mph /  9.0km/h 6mph /  9.7km/h 79% 0in /  0.0mm
04:55 28 °F /  -2.2 °C 21.2 °F /  -6.0 °C 29.9in /  1014.1hPa NNE 5.4mph /  8.7km/h 6mph /  9.7km/h 80% 0in /  0.0mm
05:00 28 °F /  -2.2 °C 21.2 °F /  -6.0 °C 29.9in /  1014.1hPa NNE 6mph /  9.7km/h 7.8mph /  12.6km/h 80% 0in /  0.0mm
05:05 28 °F /  -2.2 °C 21.2 °F /  -6.0 °C 29.9in /  1014.1hPa NNW 5.8mph /  9.3km/h 7.8mph /  12.6km/h 81% 0in /  0.0mm
05:10 28 °F /  -2.2 °C 21.2 °F /  -6.0 °C 29.9in /  1014.1hPa North 5.4mph /  8.7km/h 7.8mph /  12.6km/h 81% 0in /  0.0mm
05:15 28.2 °F /  -2.1 °C 23 °F /  -5.0 °C 29.9in /  1014.1hPa North 5.8mph /  9.3km/h 7.8mph /  12.6km/h 82% 0in /  0.0mm
05:20 28.2 °F /  -2.1 °C 23 °F /  -5.0 °C 29.9in /  1014.1hPa NE 6.5mph /  10.5km/h 8.7mph /  14.0km/h 82% 0in /  0.0mm
05:25 28.4 °F /  -2.0 °C 23 °F /  -5.0 °C 29.9in /  1014.1hPa NE 6.5mph /  10.5km/h 8.7mph /  14.0km/h 82% 0in /  0.0mm
05:30 28.6 °F /  -1.9 °C 23 °F /  -5.0 °C 29.9in /  1014.1hPa NE 6mph /  9.7km/h 8.7mph /  14.0km/h 80% 0in /  0.0mm
05:36 28.6 °F /  -1.9 °C 23 °F /  -5.0 °C 29.9in /  1014.1hPa NE 7.6mph /  12.2km/h 9.6mph /  15.4km/h 80% 0in /  0.0mm
05:41 28.6 °F /  -1.9 °C 21.2 °F /  -6.0 °C 29.9in /  1014.1hPa ENE 8.5mph /  13.7km/h 9.6mph /  15.4km/h 79% 0in /  0.0mm
05:46 28.6 °F /  -1.9 °C 21.2 °F /  -6.0 °C 29.9in /  1014.1hPa NNE 8.7mph /  14.0km/h 8.9mph /  14.3km/h 78% 0in /  0.0mm
05:51 28.8 °F /  -1.8 °C 21.2 °F /  -6.0 °C 29.9in /  1014.1hPa NNE 7.8mph /  12.6km/h 8.9mph /  14.3km/h 77% 0in /  0.0mm
05:56 28.6 °F /  -1.9 °C 21.2 °F /  -6.0 °C 29.9in /  1014.1hPa North 7.4mph /  11.9km/h 8.7mph /  14.0km/h 77% 0in /  0.0mm
06:01 28.8 °F /  -1.8 °C 21.2 °F /  -6.0 °C 29.9in /  1014.1hPa ENE 6.5mph /  10.5km/h 8.7mph /  14.0km/h 76% 0in /  0.0mm
06:06 28.6 °F /  -1.9 °C 21.2 °F /  -6.0 °C 29.9in /  1014.1hPa NE 8.1mph /  13.0km/h 9.8mph /  15.8km/h 75% 0in /  0.0mm
06:11 28.6 °F /  -1.9 °C 21.2 °F /  -6.0 °C 29.9in /  1014.1hPa NNE 7.4mph /  11.9km/h 9.8mph /  15.8km/h 75% 0in /  0.0mm
06:16 28.6 °F /  -1.9 °C 21.2 °F /  -6.0 °C 29.9in /  1014.1hPa NNE 5.6mph /  9.0km/h 8.7mph /  14.0km/h 75% 0in /  0.0mm
06:21 28.4 °F /  -2.0 °C 21.2 °F /  -6.0 °C 29.9in /  1014.1hPa NE 6.3mph /  10.1km/h 8.9mph /  14.3km/h 75% 0in /  0.0mm
06:26 28.4 °F /  -2.0 °C 21.2 °F /  -6.0 °C 29.9in /  1014.1hPa ENE 5.8mph /  9.3km/h 8.9mph /  14.3km/h 75% 0in /  0.0mm
06:31 28.2 °F /  -2.1 °C 21.2 °F /  -6.0 °C 29.9in /  1014.1hPa NE 7.4mph /  11.9km/h 8.7mph /  14.0km/h 75% 0in /  0.0mm
06:36 28.2 °F /  -2.1 °C 21.2 °F /  -6.0 °C 29.9in /  1014.1hPa NE 4mph /  6.4km/h 8.9mph /  14.3km/h 75% 0in /  0.0mm
06:41 27.9 °F /  -2.3 °C 19.4 °F /  -7.0 °C 29.9in /  1014.1hPa NE 6.9mph /  11.1km/h 8.9mph /  14.3km/h 75% 0in /  0.0mm
06:46 27.9 °F /  -2.3 °C 19.4 °F /  -7.0 °C 29.9in /  1014.1hPa NNE 8.5mph /  13.7km/h 8.5mph /  13.7km/h 75% 0in /  0.0mm
06:51 27.9 °F /  -2.3 °C 19.4 °F /  -7.0 °C 29.9in /  1014.1hPa NE 6mph /  9.7km/h 8.5mph /  13.7km/h 75% 0in /  0.0mm
06:56 27.7 °F /  -2.4 °C 19.4 °F /  -7.0 °C 29.9in /  1014.1hPa NE 6.9mph /  11.1km/h 7.4mph /  11.9km/h 75% 0in /  0.0mm
07:01 27.7 °F /  -2.4 °C 19.4 °F /  -7.0 °C 30in /  1015.1hPa NE 5.8mph /  9.3km/h 7.4mph /  11.9km/h 76% 0in /  0.0mm
07:06 27.5 °F /  -2.5 °C 19.4 °F /  -7.0 °C 30in /  1015.1hPa NE 5.6mph /  9.0km/h 6.3mph /  10.1km/h 76% 0in /  0.0mm
07:11 27.3 °F /  -2.6 °C 19.4 °F /  -7.0 °C 30in /  1015.1hPa NNE 4.9mph /  7.9km/h 6.3mph /  10.1km/h 76% 0in /  0.0mm
07:16 27.1 °F /  -2.7 °C 19.4 °F /  -7.0 °C 30in /  1015.1hPa NE 4.3mph /  6.9km/h 6.5mph /  10.5km/h 77% 0in /  0.0mm
07:21 27 °F /  -2.8 °C 19.4 °F /  -7.0 °C 30in /  1015.1hPa NE 6mph /  9.7km/h 6.5mph /  10.5km/h 77% 0in /  0.0mm
07:26 27 °F /  -2.8 °C 19.4 °F /  -7.0 °C 30in /  1015.1hPa NE 2.9mph /  4.7km/h 6mph /  9.7km/h 78% 0in /  0.0mm
07:32 27 °F /  -2.8 °C 19.4 °F /  -7.0 °C 30in /  1015.1hPa NE 3.1mph /  5.0km/h 6.7mph /  10.8km/h 78% 0in /  0.0mm
07:37 27 °F /  -2.8 °C 19.4 °F /  -7.0 °C 30in /  1015.1hPa NNE 1.6mph /  2.6km/h 6.7mph /  10.8km/h 79% 0in /  0.0mm
07:42 27 °F /  -2.8 °C 19.4 °F /  -7.0 °C 30in /  1015.1hPa North 2.5mph /  4.0km/h 5.8mph /  9.3km/h 79% 0in /  0.0mm
07:47 26.8 °F /  -2.9 °C 19.4 °F /  -7.0 °C 30in /  1015.1hPa NNE 2mph /  3.2km/h 5.4mph /  8.7km/h 79% 0in /  0.0mm
07:52 26.8 °F /  -2.9 °C 19.4 °F /  -7.0 °C 30in /  1015.1hPa North 2.5mph /  4.0km/h 4.7mph /  7.6km/h 79% 0in /  0.0mm
07:57 26.8 °F /  -2.9 °C 19.4 °F /  -7.0 °C 30in /  1015.1hPa North 1.1mph /  1.8km/h 4.9mph /  7.9km/h 79% 0in /  0.0mm
08:02 26.6 °F /  -3.0 °C 21.2 °F /  -6.0 °C 30in /  1015.1hPa North 3.8mph /  6.1km/h 5.8mph /  9.3km/h 80% 0in /  0.0mm
08:07 26.6 °F /  -3.0 °C 21.2 °F /  -6.0 °C 30in /  1015.1hPa NNE 2mph /  3.2km/h 5.8mph /  9.3km/h 80% 0in /  0.0mm
08:12 26.6 °F /  -3.0 °C 21.2 °F /  -6.0 °C 30in /  1015.1hPa NNW 4.9mph /  7.9km/h 4.9mph /  7.9km/h 80% 0in /  0.0mm
08:17 26.6 °F /  -3.0 °C 21.2 °F /  -6.0 °C 30in /  1015.1hPa North 4.3mph /  6.9km/h 4.9mph /  7.9km/h 80% 0in /  0.0mm
08:22 26.4 °F /  -3.1 °C 21.2 °F /  -6.0 °C 30in /  1015.1hPa NNE 3.8mph /  6.1km/h 6mph /  9.7km/h 80% 0in /  0.0mm
08:27 26.4 °F /  -3.1 °C 21.2 °F /  -6.0 °C 30in /  1015.1hPa Calm   6mph /  9.7km/h 80% 0in /  0.0mm
08:32 26.6 °F /  -3.0 °C 21.2 °F /  -6.0 °C 30in /  1015.1hPa NNE 2.7mph /  4.3km/h 5.4mph /  8.7km/h 80% 0in /  0.0mm
08:37 26.6 °F /  -3.0 °C 21.2 °F /  -6.0 °C 30in /  1015.1hPa North 2.9mph /  4.7km/h 5.4mph /  8.7km/h 80% 0in /  0.0mm
08:42 26.6 °F /  -3.0 °C 21.2 °F /  -6.0 °C 30in /  1015.1hPa NE 2.7mph /  4.3km/h 4.3mph /  6.9km/h 80% 0in /  0.0mm
08:47 26.6 °F /  -3.0 °C 21.2 °F /  -6.0 °C 30in /  1016.1hPa NE 2.7mph /  4.3km/h 3.6mph /  5.8km/h 80% 0in /  0.0mm
08:52 26.8 °F /  -2.9 °C 21.2 °F /  -6.0 °C 30in /  1016.1hPa NNE 2.5mph /  4.0km/h 2.7mph /  4.3km/h 80% 0in /  0.0mm
08:57 27 °F /  -2.8 °C 21.2 °F /  -6.0 °C 30in /  1016.1hPa Calm   2.7mph /  4.3km/h 81% 0in /  0.0mm
09:02 27.3 °F /  -2.6 °C 21.2 °F /  -6.0 °C 30in /  1016.1hPa North 1.1mph /  1.8km/h 2.5mph /  4.0km/h 82% 0in /  0.0mm
09:07 27.7 °F /  -2.4 °C 21.2 °F /  -6.0 °C 30in /  1016.1hPa NNE 4.9mph /  7.9km/h 4.9mph /  7.9km/h 82% 0in /  0.0mm
09:12 27.9 °F /  -2.3 °C 21.2 °F /  -6.0 °C 30in /  1016.1hPa NNE 4.9mph /  7.9km/h 4.9mph /  7.9km/h 82% 0in /  0.0mm
09:17 28 °F /  -2.2 °C 23 °F /  -5.0 °C 30in /  1016.1hPa NNE 4.9mph /  7.9km/h 4.9mph /  7.9km/h 82% 0in /  0.0mm
09:22 28.4 °F /  -2.0 °C 21.2 °F /  -6.0 °C 30in /  1016.1hPa NNE 4.9mph /  7.9km/h 4.9mph /  7.9km/h 81% 0in /  0.0mm
09:27 28.8 °F /  -1.8 °C 23 °F /  -5.0 °C 30in /  1016.1hPa NNE 4.9mph /  7.9km/h 4.9mph /  7.9km/h 80% 0in /  0.0mm
09:32 29.3 °F /  -1.5 °C 23 °F /  -5.0 °C 30in /  1016.8hPa NNE 4.9mph /  7.9km/h 4.9mph /  7.9km/h 80% 0in /  0.0mm
09:37 29.5 °F /  -1.4 °C 23 °F /  -5.0 °C 30in /  1016.8hPa NNE 4.9mph /  7.9km/h 4.9mph /  7.9km/h 79% 0in /  0.0mm
09:43 29.7 °F /  -1.3 °C 23 °F /  -5.0 °C 30in /  1016.8hPa NNE 4.9mph /  7.9km/h 4.9mph /  7.9km/h 78% 0in /  0.0mm
09:48 29.7 °F /  -1.3 °C 21.2 °F /  -6.0 °C 30in /  1016.8hPa NNE 4.9mph /  7.9km/h 4.9mph /  7.9km/h 76% 0in /  0.0mm
09:53 29.5 °F /  -1.4 °C 21.2 °F /  -6.0 °C 30in /  1016.8hPa NNE 4.9mph /  7.9km/h 4.9mph /  7.9km/h 76% 0in /  0.0mm
09:58 29.3 °F /  -1.5 °C 21.2 °F /  -6.0 °C 30in /  1016.8hPa NNE 4.9mph /  7.9km/h 4.9mph /  7.9km/h 75% 0in /  0.0mm
10:03 29.8 °F /  -1.2 °C 21.2 °F /  -6.0 °C 30in /  1016.8hPa NNE 4.9mph /  7.9km/h 4.9mph /  7.9km/h 76% 0in /  0.0mm
10:08 30 °F /  -1.1 °C 23 °F /  -5.0 °C 30in /  1016.8hPa NNE 4.9mph /  7.9km/h 4.9mph /  7.9km/h 75% 0in /  0.0mm
10:13 30.2 °F /  -1.0 °C 23 °F /  -5.0 °C 30in /  1016.8hPa NNE 4.9mph /  7.9km/h 4.9mph /  7.9km/h 75% 0in /  0.0mm
10:18 30.9 °F /  -0.6 °C 21.2 °F /  -6.0 °C 30in /  1016.8hPa NNE 4.9mph /  7.9km/h 4.9mph /  7.9km/h 73% 0in /  0.0mm
10:23 31.1 °F /  -0.5 °C 21.2 °F /  -6.0 °C 30in /  1016.8hPa NNE 4.9mph /  7.9km/h 4.9mph /  7.9km/h 72% 0in /  0.0mm
10:28 31.3 °F /  -0.4 °C 23 °F /  -5.0 °C 30in /  1016.8hPa NNE 4.9mph /  7.9km/h 4.9mph /  7.9km/h 72% 0in /  0.0mm
10:33 31.6 °F /  -0.2 °C 21.2 °F /  -6.0 °C 30in /  1016.1hPa NNE 5.4mph /  8.7km/h 5.4mph /  8.7km/h 70% 0in /  0.0mm
10:38 31.8 °F /  -0.1 °C 21.2 °F /  -6.0 °C 30in /  1016.1hPa NNE 5.4mph /  8.7km/h 5.4mph /  8.7km/h 69% 0in /  0.0mm
10:43 32.2 °F /  0.1 °C 23 °F /  -5.0 °C 30in /  1016.1hPa NNE 5.4mph /  8.7km/h 5.4mph /  8.7km/h 68% 0in /  0.0mm
10:48 32.4 °F /  0.2 °C 23 °F /  -5.0 °C 30in /  1016.8hPa NNE 5.4mph /  8.7km/h 5.4mph /  8.7km/h 67% 0in /  0.0mm
10:53 32.5 °F /  0.3 °C 23 °F /  -5.0 °C 30in /  1016.8hPa NNE 5.4mph /  8.7km/h 5.4mph /  8.7km/h 65% 0in /  0.0mm
10:58 32.7 °F /  0.4 °C 21.2 °F /  -6.0 °C 30in /  1016.8hPa NNE 5.4mph /  8.7km/h 5.4mph /  8.7km/h 62% 0in /  0.0mm
11:03 33.1 °F /  0.6 °C 21.2 °F /  -6.0 °C 30in /  1016.8hPa NNE 5.4mph /  8.7km/h 5.4mph /  8.7km/h 60% 0in /  0.0mm
11:09 33.1 °F /  0.6 °C 21.2 °F /  -6.0 °C 30in /  1016.8hPa NNE 5.4mph /  8.7km/h 5.4mph /  8.7km/h 58% 0in /  0.0mm
11:14 33.3 °F /  0.7 °C 19.4 °F /  -7.0 °C 30in /  1016.8hPa NNE 5.4mph /  8.7km/h 5.4mph /  8.7km/h 57% 0in /  0.0mm
11:19 33.4 °F /  0.8 °C 19.4 °F /  -7.0 °C 30in /  1016.8hPa NNE 5.4mph /  8.7km/h 5.4mph /  8.7km/h 55% 0in /  0.0mm
11:24 33.6 °F /  0.9 °C 19.4 °F /  -7.0 °C 30in /  1016.8hPa NNE 5.4mph /  8.7km/h 5.4mph /  8.7km/h 56% 0in /  0.0mm
11:29 33.6 °F /  0.9 °C 19.4 °F /  -7.0 °C 30in /  1016.8hPa NNE 5.4mph /  8.7km/h 5.4mph /  8.7km/h 55% 0in /  0.0mm
11:34 33.8 °F /  1.0 °C 19.4 °F /  -7.0 °C 30in /  1016.8hPa NNE 5.4mph /  8.7km/h 5.4mph /  8.7km/h 54% 0in /  0.0mm
11:39 34.2 °F /  1.2 °C 19.4 °F /  -7.0 °C 30in /  1016.8hPa NNE 5.4mph /  8.7km/h 5.4mph /  8.7km/h 54% 0in /  0.0mm
11:44 34.2 °F /  1.2 °C 19.4 °F /  -7.0 °C 30in /  1016.8hPa NNE 5.4mph /  8.7km/h 5.4mph /  8.7km/h 52% 0in /  0.0mm
11:49 34.3 °F /  1.3 °C 19.4 °F /  -7.0 °C 30in /  1016.8hPa NNE 5.4mph /  8.7km/h 5.4mph /  8.7km/h 53% 0in /  0.0mm
11:54 34.3 °F /  1.3 °C 19.4 °F /  -7.0 °C 30in /  1016.8hPa NNE 5.4mph /  8.7km/h 5.4mph /  8.7km/h 52% 0in /  0.0mm
11:59 34.5 °F /  1.4 °C 19.4 °F /  -7.0 °C 30in /  1016.8hPa NNE 5.4mph /  8.7km/h 5.4mph /  8.7km/h 52% 0in /  0.0mm
12:04 34.7 °F /  1.5 °C 19.4 °F /  -7.0 °C 30in /  1016.8hPa NNE 5.4mph /  8.7km/h 5.4mph /  8.7km/h 50% 0in /  0.0mm
12:09 35.1 °F /  1.7 °C 19.4 °F /  -7.0 °C 30in /  1016.8hPa NNE 5.4mph /  8.7km/h 5.4mph /  8.7km/h 50% 0in /  0.0mm
12:14 35.1 °F /  1.7 °C 19.4 °F /  -7.0 °C 30in /  1016.8hPa NNE 5.4mph /  8.7km/h 5.4mph /  8.7km/h 50% 0in /  0.0mm
12:19 35.2 °F /  1.8 °C 17.6 °F /  -8.0 °C 30in /  1016.8hPa NNE 5.4mph /  8.7km/h 5.4mph /  8.7km/h 47% 0in /  0.0mm
12:24 35.4 °F /  1.9 °C 15.8 °F /  -9.0 °C 30in /  1016.8hPa NNE 5.4mph /  8.7km/h 5.4mph /  8.7km/h 45% 0in /  0.0mm
12:29 35.6 °F /  2.0 °C 17.6 °F /  -8.0 °C 30in /  1016.8hPa NNE 5.4mph /  8.7km/h 5.4mph /  8.7km/h 46% 0in /  0.0mm
12:34 35.6 °F /  2.0 °C 17.6 °F /  -8.0 °C 30in /  1016.8hPa NNE 5.4mph /  8.7km/h 5.4mph /  8.7km/h 46% 0in /  0.0mm
12:39 35.8 °F /  2.1 °C 17.6 °F /  -8.0 °C 30in /  1016.8hPa NNE 5.4mph /  8.7km/h 5.4mph /  8.7km/h 46% 0in /  0.0mm
12:44 35.8 °F /  2.1 °C 17.6 °F /  -8.0 °C 30in /  1016.8hPa NNE 5.4mph /  8.7km/h 5.4mph /  8.7km/h 47% 0in /  0.0mm
12:49 35.4 °F /  1.9 °C 17.6 °F /  -8.0 °C 30in /  1016.8hPa NNE 5.4mph /  8.7km/h 5.4mph /  8.7km/h 48% 0in /  0.0mm
12:54 35.4 °F /  1.9 °C 17.6 °F /  -8.0 °C 30in /  1016.8hPa NNE 5.4mph /  8.7km/h 5.4mph /  8.7km/h 47% 0in /  0.0mm
12:59 34.9 °F /  1.6 °C 17.6 °F /  -8.0 °C 30in /  1016.8hPa NNE 5.4mph /  8.7km/h 5.4mph /  8.7km/h 47% 0in /  0.0mm
13:04 34.9 °F /  1.6 °C 17.6 °F /  -8.0 °C 30in /  1016.8hPa NNE 5.4mph /  8.7km/h 5.4mph /  8.7km/h 47% 0in /  0.0mm
13:09 34.7 °F /  1.5 °C 17.6 °F /  -8.0 °C 30in /  1016.8hPa NNE 5.4mph /  8.7km/h 5.4mph /  8.7km/h 48% 0in /  0.0mm
13:14 34.7 °F /  1.5 °C 17.6 °F /  -8.0 °C 30in /  1016.8hPa NNE 5.4mph /  8.7km/h 5.4mph /  8.7km/h 48% 0in /  0.0mm
13:19 34.7 °F /  1.5 °C 17.6 °F /  -8.0 °C 30in /  1016.8hPa NNE 5.4mph /  8.7km/h 5.4mph /  8.7km/h 48% 0in /  0.0mm
13:24 34.9 °F /  1.6 °C 17.6 °F /  -8.0 °C 30in /  1016.8hPa NNE 5.4mph /  8.7km/h 5.4mph /  8.7km/h 49% 0in /  0.0mm
13:29 34.9 °F /  1.6 °C 17.6 °F /  -8.0 °C 30.1in /  1018.2hPa NNE 5.4mph /  8.7km/h 5.4mph /  8.7km/h 47% 0in /  0.0mm
13:34 35.2 °F /  1.8 °C 17.6 °F /  -8.0 °C 30.1in /  1018.2hPa NNE 5.4mph /  8.7km/h 5.4mph /  8.7km/h 48% 0in /  0.0mm
13:39 35.4 °F /  1.9 °C 17.6 °F /  -8.0 °C 30.1in /  1018.2hPa NNE 5.4mph /  8.7km/h 5.4mph /  8.7km/h 48% 0in /  0.0mm
13:44 35.2 °F /  1.8 °C 17.6 °F /  -8.0 °C 30in /  1016.8hPa NNE 5.4mph /  8.7km/h 5.4mph /  8.7km/h 48% 0in /  0.0mm
13:49 35.1 °F /  1.7 °C 17.6 °F /  -8.0 °C 30in /  1016.8hPa NNE 5.4mph /  8.7km/h 5.4mph /  8.7km/h 47% 0in /  0.0mm
13:54 35.1 °F /  1.7 °C 17.6 °F /  -8.0 °C 30in /  1016.8hPa NNE 5.4mph /  8.7km/h 5.4mph /  8.7km/h 47% 0in /  0.0mm
13:59 35.1 °F /  1.7 °C 17.6 °F /  -8.0 °C 30.1in /  1018.2hPa NNE 5.4mph /  8.7km/h 5.4mph /  8.7km/h 47% 0in /  0.0mm
14:04 35.1 °F /  1.7 °C 17.6 °F /  -8.0 °C 30.1in /  1018.2hPa NNE 5.4mph /  8.7km/h 5.4mph /  8.7km/h 48% 0in /  0.0mm
14:09 35.1 °F /  1.7 °C 17.6 °F /  -8.0 °C 30.1in /  1018.2hPa NNE 5.4mph /  8.7km/h 5.4mph /  8.7km/h 48% 0in /  0.0mm
14:14 35.1 °F /  1.7 °C 15.8 °F /  -9.0 °C 30.1in /  1018.2hPa NNE 5.4mph /  8.7km/h 5.4mph /  8.7km/h 46% 0in /  0.0mm
14:19 35.2 °F /  1.8 °C 15.8 °F /  -9.0 °C 30.1in /  1018.2hPa NNE 5.4mph /  8.7km/h 5.4mph /  8.7km/h 45% 0in /  0.0mm
14:24 35.4 °F /  1.9 °C 17.6 °F /  -8.0 °C 30.1in /  1018.2hPa NNE 5.4mph /  8.7km/h 5.4mph /  8.7km/h 46% 0in /  0.0mm
14:29 35.4 °F /  1.9 °C 17.6 °F /  -8.0 °C 30.1in /  1018.2hPa NNE 5.4mph /  8.7km/h 5.4mph /  8.7km/h 48% 0in /  0.0mm
14:34 35.4 °F /  1.9 °C 17.6 °F /  -8.0 °C 30.1in /  1018.2hPa NNE 5.4mph /  8.7km/h 5.4mph /  8.7km/h 48% 0in /  0.0mm
14:39 35.4 °F /  1.9 °C 17.6 °F /  -8.0 °C 30.1in /  1018.2hPa NNE 5.4mph /  8.7km/h 5.4mph /  8.7km/h 48% 0in /  0.0mm
14:44 35.4 °F /  1.9 °C 17.6 °F /  -8.0 °C 30in /  1016.8hPa NNE 5.4mph /  8.7km/h 5.4mph /  8.7km/h 48% 0in /  0.0mm
14:50 35.6 °F /  2.0 °C 19.4 °F /  -7.0 °C 30in /  1016.8hPa NNE 5.4mph /  8.7km/h 5.4mph /  8.7km/h 50% 0in /  0.0mm
14:55 35.6 °F /  2.0 °C 19.4 °F /  -7.0 °C 30in /  1016.8hPa NNE 5.4mph /  8.7km/h 5.4mph /  8.7km/h 50% 0in /  0.0mm
15:00 35.6 °F /  2.0 °C 19.4 °F /  -7.0 °C 30.1in /  1018.2hPa NNE 5.4mph /  8.7km/h 5.4mph /  8.7km/h 50% 0in /  0.0mm
15:05 35.4 °F /  1.9 °C 19.4 °F /  -7.0 °C 30.1in /  1018.2hPa NNE 5.4mph /  8.7km/h 5.4mph /  8.7km/h 51% 0in /  0.0mm
15:10 35.6 °F /  2.0 °C 19.4 °F /  -7.0 °C 30.1in /  1018.2hPa NNE 5.4mph /  8.7km/h 5.4mph /  8.7km/h 50% 0in /  0.0mm
15:15 35.6 °F /  2.0 °C 19.4 °F /  -7.0 °C 30.1in /  1018.2hPa NNE 5.4mph /  8.7km/h 5.4mph /  8.7km/h 50% 0in /  0.0mm
15:20 35.6 °F /  2.0 °C 19.4 °F /  -7.0 °C 30.1in /  1018.2hPa NNE 5.4mph /  8.7km/h 5.4mph /  8.7km/h 50% 0in /  0.0mm
15:25 35.6 °F /  2.0 °C 19.4 °F /  -7.0 °C 30.1in /  1018.2hPa NNE 5.4mph /  8.7km/h 5.4mph /  8.7km/h 50% 0in /  0.0mm
15:30 35.6 °F /  2.0 °C 19.4 °F /  -7.0 °C 30.1in /  1018.2hPa NNE 5.4mph /  8.7km/h 5.4mph /  8.7km/h 50% 0in /  0.0mm
15:35 35.6 °F /  2.0 °C 19.4 °F /  -7.0 °C 30.1in /  1018.2hPa NNE 5.4mph /  8.7km/h 5.4mph /  8.7km/h 51% 0in /  0.0mm
15:40 35.4 °F /  1.9 °C 19.4 °F /  -7.0 °C 30.1in /  1018.2hPa NNE 5.4mph /  8.7km/h 5.4mph /  8.7km/h 50% 0in /  0.0mm
15:45 35.4 °F /  1.9 °C 19.4 °F /  -7.0 °C 30in /  1016.8hPa NNE 5.4mph /  8.7km/h 5.4mph /  8.7km/h 50% 0in /  0.0mm
15:50 35.4 °F /  1.9 °C 19.4 °F /  -7.0 °C 30in /  1016.8hPa NNE 5.4mph /  8.7km/h 5.4mph /  8.7km/h 50% 0in /  0.0mm
15:55 35.4 °F /  1.9 °C 19.4 °F /  -7.0 °C 30in /  1016.8hPa NNE 5.4mph /  8.7km/h 5.4mph /  8.7km/h 51% 0in /  0.0mm
16:00 35.2 °F /  1.8 °C 19.4 °F /  -7.0 °C 30in /  1016.8hPa NNE 5.4mph /  8.7km/h 5.4mph /  8.7km/h 51% 0in /  0.0mm
16:05 35.2 °F /  1.8 °C 19.4 °F /  -7.0 °C 30in /  1016.8hPa NNE 5.4mph /  8.7km/h 5.4mph /  8.7km/h 51% 0in /  0.0mm
16:10 35.1 °F /  1.7 °C 19.4 °F /  -7.0 °C 30in /  1016.8hPa NNE 5.4mph /  8.7km/h 5.4mph /  8.7km/h 50% 0in /  0.0mm
16:15 35.1 °F /  1.7 °C 19.4 °F /  -7.0 °C 30in /  1016.8hPa NNE 5.4mph /  8.7km/h 5.4mph /  8.7km/h 51% 0in /  0.0mm
16:20 34.9 °F /  1.6 °C 19.4 °F /  -7.0 °C 30in /  1016.8hPa NNE 5.4mph /  8.7km/h 5.4mph /  8.7km/h 52% 0in /  0.0mm
16:25 34.9 °F /  1.6 °C 19.4 °F /  -7.0 °C 30in /  1016.8hPa NNE 5.4mph /  8.7km/h 5.4mph /  8.7km/h 53% 0in /  0.0mm
16:30 34.9 °F /  1.6 °C 19.4 °F /  -7.0 °C 30.1in /  1018.2hPa NNE 5.4mph /  8.7km/h 5.4mph /  8.7km/h 53% 0in /  0.0mm
16:35 34.7 °F /  1.5 °C 19.4 °F /  -7.0 °C 30.1in /  1018.2hPa NNE 5.4mph /  8.7km/h 5.4mph /  8.7km/h 53% 0in /  0.0mm
16:40 34.7 °F /  1.5 °C 19.4 °F /  -7.0 °C 30.1in /  1018.2hPa NNE 5.4mph /  8.7km/h 5.4mph /  8.7km/h 53% 0in /  0.0mm
16:41 34.7 °F /  1.5 °C 21.2 °F /  -6.0 °C 30.1in /  1018.2hPa NNE 5.4mph /  8.7km/h 5.4mph /  8.7km/h 54% 0in /  0.0mm
16:46 34.7 °F /  1.5 °C 21.2 °F /  -6.0 °C 30in /  1016.8hPa NNE 5.4mph /  8.7km/h 5.4mph /  8.7km/h 54% 0in /  0.0mm
16:51 34.5 °F /  1.4 °C 19.4 °F /  -7.0 °C 30in /  1016.8hPa NNE 5.4mph /  8.7km/h 5.4mph /  8.7km/h 55% 0in /  0.0mm
16:56 34.3 °F /  1.3 °C 19.4 °F /  -7.0 °C 30in /  1016.8hPa NNE 5.4mph /  8.7km/h 5.4mph /  8.7km/h 55% 0in /  0.0mm
16:57 34.3 °F /  1.3 °C 19.4 °F /  -7.0 °C 30in /  1016.8hPa NNE 5.4mph /  8.7km/h 5.4mph /  8.7km/h 55% 0in /  0.0mm
17:02 34.3 °F /  1.3 °C 19.4 °F /  -7.0 °C 30.1in /  1018.2hPa NNE 5.4mph /  8.7km/h 5.4mph /  8.7km/h 55% 0in /  0.0mm
17:07 34.2 °F /  1.2 °C 21.2 °F /  -6.0 °C 30.1in /  1018.2hPa NNE 5.4mph /  8.7km/h 5.4mph /  8.7km/h 56% 0in /  0.0mm
17:12 34.2 °F /  1.2 °C 21.2 °F /  -6.0 °C 30.1in /  1018.2hPa NNE 5.4mph /  8.7km/h 5.4mph /  8.7km/h 56% 0in /  0.0mm
17:17 34 °F /  1.1 °C 21.2 °F /  -6.0 °C 30in /  1016.8hPa NNE 5.4mph /  8.7km/h 5.4mph /  8.7km/h 57% 0in /  0.0mm
17:22 34 °F /  1.1 °C 21.2 °F /  -6.0 °C 30in /  1016.8hPa NNE 5.4mph /  8.7km/h 5.4mph /  8.7km/h 57% 0in /  0.0mm
17:27 33.8 °F /  1.0 °C 21.2 °F /  -6.0 °C 30in /  1016.8hPa NNE 5.4mph /  8.7km/h 5.4mph /  8.7km/h 58% 0in /  0.0mm
17:32 33.8 °F /  1.0 °C 21.2 °F /  -6.0 °C 30.1in /  1018.2hPa NNE 5.4mph /  8.7km/h 5.4mph /  8.7km/h 58% 0in /  0.0mm
17:37 33.8 °F /  1.0 °C 21.2 °F /  -6.0 °C 30.1in /  1018.2hPa NNE 5.4mph /  8.7km/h 5.4mph /  8.7km/h 58% 0in /  0.0mm
17:42 33.8 °F /  1.0 °C 21.2 °F /  -6.0 °C 30.1in /  1018.2hPa NNE 5.4mph /  8.7km/h 5.4mph /  8.7km/h 58% 0in /  0.0mm
17:47 33.6 °F /  0.9 °C 21.2 °F /  -6.0 °C 30.1in /  1018.2hPa NNE 5.4mph /  8.7km/h 5.4mph /  8.7km/h 59% 0in /  0.0mm
17:52 33.6 °F /  0.9 °C 21.2 °F /  -6.0 °C 30.1in /  1018.2hPa NNE 5.4mph /  8.7km/h 5.4mph /  8.7km/h 59% 0in /  0.0mm
17:57 33.6 °F /  0.9 °C 21.2 °F /  -6.0 °C 30.1in /  1018.2hPa NNE 5.4mph /  8.7km/h 5.4mph /  8.7km/h 59% 0in /  0.0mm
18:02 33.4 °F /  0.8 °C 21.2 °F /  -6.0 °C 30.1in /  1018.2hPa NNE 5.4mph /  8.7km/h 5.4mph /  8.7km/h 60% 0in /  0.0mm
18:07 33.4 °F /  0.8 °C 21.2 °F /  -6.0 °C 30.1in /  1018.2hPa NNE 5.4mph /  8.7km/h 5.4mph /  8.7km/h 60% 0in /  0.0mm
18:12 33.4 °F /  0.8 °C 21.2 °F /  -6.0 °C 30.1in /  1018.2hPa NNE 5.4mph /  8.7km/h 5.4mph /  8.7km/h 60% 0in /  0.0mm
18:17 33.3 °F /  0.7 °C 21.2 °F /  -6.0 °C 30.1in /  1018.2hPa NNE 5.4mph /  8.7km/h 5.4mph /  8.7km/h 61% 0in /  0.0mm
18:22 33.3 °F /  0.7 °C 21.2 °F /  -6.0 °C 30.1in /  1018.2hPa NNE 5.4mph /  8.7km/h 5.4mph /  8.7km/h 61% 0in /  0.0mm
18:27 33.1 °F /  0.6 °C 21.2 °F /  -6.0 °C 30.1in /  1018.2hPa NNE 5.4mph /  8.7km/h 5.4mph /  8.7km/h 61% 0in /  0.0mm
18:32 33.1 °F /  0.6 °C 21.2 °F /  -6.0 °C 30.1in /  1018.8hPa NNE 5.4mph /  8.7km/h 5.4mph /  8.7km/h 62% 0in /  0.0mm
18:37 33.1 °F /  0.6 °C 21.2 °F /  -6.0 °C 30.1in /  1018.8hPa NNE 5.4mph /  8.7km/h 5.4mph /  8.7km/h 62% 0in /  0.0mm
18:42 33.1 °F /  0.6 °C 21.2 °F /  -6.0 °C 30.1in /  1018.8hPa NNE 5.4mph /  8.7km/h 5.4mph /  8.7km/h 62% 0in /  0.0mm
18:47 32.9 °F /  0.5 °C 21.2 °F /  -6.0 °C 30.1in /  1018.8hPa NNE 5.4mph /  8.7km/h 5.4mph /  8.7km/h 62% 0in /  0.0mm
18:52 32.9 °F /  0.5 °C 21.2 °F /  -6.0 °C 30.1in /  1018.8hPa NNE 5.4mph /  8.7km/h 5.4mph /  8.7km/h 62% 0in /  0.0mm
18:57 32.7 °F /  0.4 °C 21.2 °F /  -6.0 °C 30.1in /  1018.8hPa NNE 5.4mph /  8.7km/h 5.4mph /  8.7km/h 63% 0in /  0.0mm
19:02 32.5 °F /  0.3 °C 21.2 °F /  -6.0 °C 30.1in /  1018.8hPa NNE 5.4mph /  8.7km/h 5.4mph /  8.7km/h 63% 0in /  0.0mm
19:07 32.4 °F /  0.2 °C 21.2 °F /  -6.0 °C 30.1in /  1018.8hPa NNE 5.4mph /  8.7km/h 5.4mph /  8.7km/h 64% 0in /  0.0mm
19:12 32.2 °F /  0.1 °C 21.2 °F /  -6.0 °C 30.1in /  1018.8hPa NNE 5.4mph /  8.7km/h 5.4mph /  8.7km/h 64% 0in /  0.0mm
19:18 32 °F /  0.0 °C 21.2 °F /  -6.0 °C 30.1in /  1018.8hPa NNE 5.4mph /  8.7km/h 5.4mph /  8.7km/h 65% 0in /  0.0mm
19:23 31.8 °F /  -0.1 °C 21.2 °F /  -6.0 °C 30.1in /  1018.8hPa NNE 5.4mph /  8.7km/h 5.4mph /  8.7km/h 66% 0in /  0.0mm
19:28 31.6 °F /  -0.2 °C 21.2 °F /  -6.0 °C 30.1in /  1018.8hPa NNE 5.4mph /  8.7km/h 5.4mph /  8.7km/h 66% 0in /  0.0mm
19:33 31.6 °F /  -0.2 °C 21.2 °F /  -6.0 °C 30.1in /  1018.8hPa NNE 5.4mph /  8.7km/h 5.4mph /  8.7km/h 66% 0in /  0.0mm
19:38 31.5 °F /  -0.3 °C 21.2 °F /  -6.0 °C 30.1in /  1018.8hPa NNE 5.4mph /  8.7km/h 5.4mph /  8.7km/h 67% 0in /  0.0mm
19:43 31.3 °F /  -0.4 °C 21.2 °F /  -6.0 °C 30.1in /  1018.8hPa NNE 5.4mph /  8.7km/h 5.4mph /  8.7km/h 67% 0in /  0.0mm
19:48 31.1 °F /  -0.5 °C 19.4 °F /  -7.0 °C 30.1in /  1018.8hPa NNE 5.4mph /  8.7km/h 5.4mph /  8.7km/h 67% 0in /  0.0mm
19:53 30.9 °F /  -0.6 °C 19.4 °F /  -7.0 °C 30.1in /  1018.8hPa NNE 5.4mph /  8.7km/h 5.4mph /  8.7km/h 67% 0in /  0.0mm
19:58 30.9 °F /  -0.6 °C 19.4 °F /  -7.0 °C 30.1in /  1018.8hPa NNE 5.4mph /  8.7km/h 5.4mph /  8.7km/h 67% 0in /  0.0mm
20:03 30.7 °F /  -0.7 °C 21.2 °F /  -6.0 °C 30.1in /  1018.8hPa NNE 5.4mph /  8.7km/h 5.4mph /  8.7km/h 68% 0in /  0.0mm
20:08 30.7 °F /  -0.7 °C 21.2 °F /  -6.0 °C 30.1in /  1018.8hPa NNE 5.4mph /  8.7km/h 5.4mph /  8.7km/h 68% 0in /  0.0mm
20:13 30.6 °F /  -0.8 °C 19.4 °F /  -7.0 °C 30.1in /  1018.8hPa NNE 5.4mph /  8.7km/h 5.4mph /  8.7km/h 68% 0in /  0.0mm
20:18 30.4 °F /  -0.9 °C 19.4 °F /  -7.0 °C 30.1in /  1018.2hPa NNE 5.4mph /  8.7km/h 5.4mph /  8.7km/h 68% 0in /  0.0mm
20:23 30.2 °F /  -1.0 °C 19.4 °F /  -7.0 °C 30.1in /  1018.2hPa NNE 5.4mph /  8.7km/h 5.4mph /  8.7km/h 68% 0in /  0.0mm
20:28 30 °F /  -1.1 °C 19.4 °F /  -7.0 °C 30.1in /  1018.2hPa NNE 5.4mph /  8.7km/h 5.4mph /  8.7km/h 68% 0in /  0.0mm
20:33 29.7 °F /  -1.3 °C 19.4 °F /  -7.0 °C 30.1in /  1018.8hPa NNE 5.4mph /  8.7km/h 5.4mph /  8.7km/h 68% 0in /  0.0mm
20:38 29.5 °F /  -1.4 °C 19.4 °F /  -7.0 °C 30.1in /  1018.8hPa NNE 5.4mph /  8.7km/h 5.4mph /  8.7km/h 68% 0in /  0.0mm
20:43 29.3 °F /  -1.5 °C 19.4 °F /  -7.0 °C 30.1in /  1018.8hPa NNE 5.4mph /  8.7km/h 5.4mph /  8.7km/h 69% 0in /  0.0mm
20:48 28.9 °F /  -1.7 °C 19.4 °F /  -7.0 °C 30.1in /  1018.2hPa NNE 5.4mph /  8.7km/h 5.4mph /  8.7km/h 69% 0in /  0.0mm
20:53 28.6 °F /  -1.9 °C 19.4 °F /  -7.0 °C 30.1in /  1018.2hPa NNE 5.4mph /  8.7km/h 5.4mph /  8.7km/h 70% 0in /  0.0mm
20:58 28.6 °F /  -1.9 °C 19.4 °F /  -7.0 °C 30.1in /  1018.8hPa NNE 5.4mph /  8.7km/h 5.4mph /  8.7km/h 71% 0in /  0.0mm
21:03 28.4 °F /  -2.0 °C 19.4 °F /  -7.0 °C 30.1in /  1018.8hPa NNE 5.4mph /  8.7km/h 5.4mph /  8.7km/h 72% 0in /  0.0mm
21:09 28.2 °F /  -2.1 °C 19.4 °F /  -7.0 °C 30.1in /  1018.8hPa NNE 5.4mph /  8.7km/h 5.4mph /  8.7km/h 73% 0in /  0.0mm
21:14 28 °F /  -2.2 °C 19.4 °F /  -7.0 °C 30.1in /  1018.8hPa NNE 5.4mph /  8.7km/h 5.4mph /  8.7km/h 73% 0in /  0.0mm
21:19 27.9 °F /  -2.3 °C 19.4 °F /  -7.0 °C 30.1in /  1018.8hPa NNE 5.4mph /  8.7km/h 5.4mph /  8.7km/h 74% 0in /  0.0mm
21:24 27.9 °F /  -2.3 °C 19.4 °F /  -7.0 °C 30.1in /  1018.8hPa NNE 5.4mph /  8.7km/h 5.4mph /  8.7km/h 74% 0in /  0.0mm
21:29 27.9 °F /  -2.3 °C 19.4 °F /  -7.0 °C 30.1in /  1018.8hPa NNE 5.4mph /  8.7km/h 5.4mph /  8.7km/h 75% 0in /  0.0mm
21:34 28 °F /  -2.2 °C 21.2 °F /  -6.0 °C 30.1in /  1018.8hPa NNE 5.4mph /  8.7km/h 5.4mph /  8.7km/h 76% 0in /  0.0mm
21:39 28 °F /  -2.2 °C 21.2 °F /  -6.0 °C 30.1in /  1018.8hPa NNE 5.4mph /  8.7km/h 5.4mph /  8.7km/h 76% 0in /  0.0mm
21:44 28 °F /  -2.2 °C 21.2 °F /  -6.0 °C 30.1in /  1018.8hPa NNE 5.4mph /  8.7km/h 5.4mph /  8.7km/h 77% 0in /  0.0mm
21:49 28.2 °F /  -2.1 °C 21.2 °F /  -6.0 °C 30.1in /  1018.8hPa NNE 5.4mph /  8.7km/h 5.4mph /  8.7km/h 77% 0in /  0.0mm
21:54 28.4 °F /  -2.0 °C 21.2 °F /  -6.0 °C 30.1in /  1018.8hPa NNE 5.4mph /  8.7km/h 5.4mph /  8.7km/h 78% 0in /  0.0mm
21:59 28.4 °F /  -2.0 °C 21.2 °F /  -6.0 °C 30.1in /  1018.8hPa NNE 5.4mph /  8.7km/h 5.4mph /  8.7km/h 78% 0in /  0.0mm
22:04 28.8 °F /  -1.8 °C 21.2 °F /  -6.0 °C 30.1in /  1018.8hPa NNE 5.4mph /  8.7km/h 5.4mph /  8.7km/h 78% 0in /  0.0mm
22:09 28.9 °F /  -1.7 °C 21.2 °F /  -6.0 °C 30.1in /  1018.8hPa NNE 5.4mph /  8.7km/h 5.4mph /  8.7km/h 78% 0in /  0.0mm
22:14 29.1 °F /  -1.6 °C 21.2 °F /  -6.0 °C 30.1in /  1018.8hPa NNE 5.4mph /  8.7km/h 5.4mph /  8.7km/h 78% 0in /  0.0mm
22:19 29.1 °F /  -1.6 °C 23 °F /  -5.0 °C 30.1in /  1018.8hPa NNE 5.4mph /  8.7km/h 5.4mph /  8.7km/h 79% 0in /  0.0mm
22:24 29.3 °F /  -1.5 °C 23 °F /  -5.0 °C 30.1in /  1018.8hPa NNE 5.4mph /  8.7km/h 5.4mph /  8.7km/h 79% 0in /  0.0mm
22:29 29.3 °F /  -1.5 °C 23 °F /  -5.0 °C 30.1in /  1018.8hPa NNE 5.4mph /  8.7km/h 5.4mph /  8.7km/h 80% 0in /  0.0mm
22:34 29.5 °F /  -1.4 °C 23 °F /  -5.0 °C 30.1in /  1018.8hPa Calm     80% 0in /  0.0mm
22:39 29.5 °F /  -1.4 °C 23 °F /  -5.0 °C 30.1in /  1018.8hPa Calm     80% 0in /  0.0mm
22:44 29.5 °F /  -1.4 °C 23 °F /  -5.0 °C 30.1in /  1018.8hPa Calm     80% 0in /  0.0mm
22:50 29.7 °F /  -1.3 °C 23 °F /  -5.0 °C 30.1in /  1018.8hPa Calm     80% 0in /  0.0mm
22:55 29.7 °F /  -1.3 °C 23 °F /  -5.0 °C 30.1in /  1018.8hPa Calm     81% 0in /  0.0mm
23:00 29.7 °F /  -1.3 °C 23 °F /  -5.0 °C 30.1in /  1018.8hPa Calm     81% 0in /  0.0mm
23:05 29.7 °F /  -1.3 °C 23 °F /  -5.0 °C 30.1in /  1018.8hPa Calm     82% 0in /  0.0mm
23:10 29.5 °F /  -1.4 °C 23 °F /  -5.0 °C 30.1in /  1018.8hPa Calm     82% 0in /  0.0mm
23:15 29.5 °F /  -1.4 °C 23 °F /  -5.0 °C 30.1in /  1018.8hPa Calm     82% 0in /  0.0mm
23:20 29.5 °F /  -1.4 °C 23 °F /  -5.0 °C 30.1in /  1018.8hPa Calm     82% 0in /  0.0mm
23:25 29.5 °F /  -1.4 °C 23 °F /  -5.0 °C 30.1in /  1018.8hPa Calm     82% 0in /  0.0mm
23:30 29.5 °F /  -1.4 °C 23 °F /  -5.0 °C 30.1in /  1018.8hPa Calm     81% 0in /  0.0mm
23:35 29.5 °F /  -1.4 °C 23 °F /  -5.0 °C 30.1in /  1018.8hPa Calm     81% 0in /  0.0mm
23:40 29.5 °F /  -1.4 °C 23 °F /  -5.0 °C 30.1in /  1018.8hPa Calm     81% 0in /  0.0mm
23:45 29.1 °F /  -1.6 °C 23 °F /  -5.0 °C 30.1in /  1018.8hPa Calm     81% 0in /  0.0mm
23:50 28.9 °F /  -1.7 °C 23 °F /  -5.0 °C 30.1in /  1018.8hPa Calm     81% 0in /  0.0mm
23:55 28.6 °F /  -1.9 °C 23 °F /  -5.0 °C 30.1in /  1018.8hPa Calm     81% 0in /  0.0mm
Données Historique de Météo Turbie

Mise a jour : 24/05/2018 15:38:14
Généré par Cumulus 1.9.4 (1099)